Dobrodošli na spletni strani vremenske postaje Senovo. Vse informacije so informativnega značaja, saj vremenska postaja ni del državne mreže meteoroloških postaj. AKTUALNIH OBVESTIL NI.


Sneg/Led Od: 23-02-2018 00:00 Do: 23:59 Opozorilo za: Sneg/Led Stopnja: Rumena info button

Pogled proti Armezu več informacij Pogled proti Armezu


Lisca več informacij Lisca


Radar strel več informacij blitzortung!


opozorilo za sneg/led več informacij rain snow radar


Obiščite še:

Template documentation
and downloads

And another site



Weather Underground, zgodovina - Tekstovno

Dnevni povzetek za December 17, 2017 Enote:  Metrično    Angleško   Obe
« Predhodni Dan
Naslednji Dan »
Dnevni Tedenski Mesečni Letni Po meri
  Višja: Nižja: Povprečje:
Temperatura: -17.8 °C -18.3 °C -17.4 °C
Točka rosišča: -17.8 °C -18.7 °C -17.7 °C
Vlažnost: Humidity % 0 % 93 %
Hitrost vetra: 0 km/h 0 km/h 2.1 km/h
Sunki vetra: 0 km/h - -
Veter:- - SW
Zračni tlak: 0 hPa 0 hPa -
Padavine: 0 mm    
Historical Graphs
 
 
Tabelarni podarki za December 17, 2017
Čas Temperatura Točka rosišča Zračni tlak Veter Hitrost vetra Sunki vetra Vlažnost Intenziteta padavin (urna)
-17.8 °C -17.8 °C 0 hPa Calm     Humidity % 0 mm
00:00 -17.8 °C -18.6 °C 0 hPa North 1 km/h   0 % 0 mm
00:02 -18.2 °C -18.6 °C 34303.6 hPa NNW 1.3 km/h 6.9 km/h 95 % 0 mm
00:07 -18.3 °C -18.7 °C 34303.6 hPa North 1.8 km/h 6.9 km/h 95 % 0 mm
00:12 -18.3 °C -18.7 °C 34269.7 hPa NNE 1.3 km/h 5.6 km/h 95 % 0 mm
00:20 -18.3 °C -18.7 °C 34269.7 hPa SE 0.3 km/h 5.6 km/h 95 % 0 mm
00:21 -18.3 °C -18.7 °C 34269.7 hPa ESE 0.3 km/h 5.6 km/h 95 % 0 mm
00:24 -18.3 °C -18.7 °C 34269.7 hPa East 0.3 km/h 5.6 km/h 95 % 0 mm
00:29 -18.3 °C -18.7 °C 0 hPa ESE 0.3 km/h 2.9 km/h 95 % 0 mm
00:30 -18.3 °C -18.7 °C 0 hPa ESE 0.3 km/h 2.9 km/h 95 % 0 mm
00:34 -18.3 °C -18.7 °C 34303.6 hPa Calm     95 % 0 mm
00:37 -18.3 °C -18.7 °C 34303.6 hPa NE 0.8 km/h 6.4 km/h 95 % 0 mm
00:40 -18.3 °C -18.7 °C 34303.6 hPa NNE 0.5 km/h 6.4 km/h 95 % 0 mm
00:45 -18.3 °C -18.7 °C 34303.6 hPa NE 0.5 km/h 5.6 km/h 95 % 0 mm
00:47 -18.3 °C -18.7 °C 34303.6 hPa NE 1.3 km/h 5.6 km/h 95 % 0 mm
00:49 -18.3 °C -18.7 °C 34303.6 hPa NE 1 km/h 5.6 km/h 95 % 0 mm
00:54 -18.3 °C -18.7 °C 34303.6 hPa NE 0.8 km/h 5.6 km/h 95 % 0 mm
00:56 -18.3 °C -18.7 °C 34303.6 hPa NE 0.5 km/h 4.2 km/h 95 % 0 mm
01:02 -18.3 °C -18.7 °C 34303.6 hPa Calm     95 % 0 mm
01:05 -18.3 °C -18.7 °C 34303.6 hPa Calm     95 % 0 mm
01:10 -18.3 °C -18.7 °C 34303.6 hPa East 0.3 km/h 5.6 km/h 96 % 0 mm
01:13 -18.3 °C -18.7 °C 34303.6 hPa ENE 1.6 km/h 8.9 km/h 96 % 0 mm
01:18 -18.3 °C -18.7 °C 34303.6 hPa ENE 3.9 km/h 8.9 km/h 96 % 0 mm
01:19 -18.3 °C -18.7 °C 34303.6 hPa ENE 3.9 km/h 8.9 km/h 96 % 0 mm
01:20 -18.3 °C -18.7 °C 34303.6 hPa ENE 3.7 km/h 8.9 km/h 96 % 0 mm
01:25 -18.3 °C -18.7 °C 34303.6 hPa NNE 1.6 km/h 5.6 km/h 96 % 0 mm
01:26 -18.3 °C -18.7 °C 34303.6 hPa NNE 1.6 km/h 5.6 km/h 96 % 0 mm
01:31 -18.3 °C -18.7 °C 34303.6 hPa NNW 1.3 km/h 5.6 km/h 96 % 0 mm
01:33 -18.3 °C -18.7 °C 34303.6 hPa NNW 1.3 km/h 5.6 km/h 96 % 0 mm
01:38 -18.3 °C -18.7 °C 34303.6 hPa NW 0.5 km/h 3.4 km/h 96 % 0 mm
01:39 -18.3 °C -18.7 °C 34303.6 hPa Calm     96 % 0 mm
01:40 -18.3 °C -18.7 °C 34303.6 hPa Calm     96 % 0 mm
01:45 -18.3 °C -18.7 °C 34303.6 hPa SE 0.8 km/h 6.9 km/h 95 % 0 mm
01:46 -18.3 °C -18.7 °C 34303.6 hPa SE 1 km/h 6.9 km/h 95 % 0 mm
01:51 -18.2 °C -18.5 °C 34303.6 hPa ESE 1.6 km/h 6.9 km/h 96 % 0 mm
01:55 -18.2 °C -18.5 °C 34303.6 hPa ESE 0.8 km/h 5.6 km/h 96 % 0 mm
01:57 -18.2 °C -18.5 °C 34303.6 hPa ESE 1 km/h 5.6 km/h 96 % 0 mm
02:02 -18.2 °C -18.5 °C 34303.6 hPa West 2.1 km/h 8 km/h 96 % 0 mm
08:38 -17.9 °C -18.2 °C 34428.8 hPa SW 6.4 km/h 9.3 km/h 97 % 0 mm
08:44 -17.9 °C -18.1 °C 34428.8 hPa SSW 3.1 km/h 9.3 km/h 97 % 0 mm
08:48 -17.9 °C -18.1 °C 34428.8 hPa SW 2.3 km/h 6.4 km/h 97 % 0 mm
08:52 -17.9 °C -18.1 °C 34428.8 hPa WSW 1.8 km/h 6.4 km/h 97 % 0 mm
08:57 -17.9 °C -18.1 °C 34428.8 hPa West 1 km/h 4.2 km/h 97 % 0 mm
09:02 -17.9 °C -18.1 °C 34428.8 hPa Calm     97 % 0 mm
09:06 -17.9 °C -18.1 °C 34428.8 hPa Calm     97 % 0 mm
09:11 -17.8 °C -18.1 °C 34428.8 hPa SW 2.3 km/h 8.9 km/h 97 % 0 mm
09:15 -17.8 °C -18.1 °C 34428.8 hPa SW 3.9 km/h 8.9 km/h 97 % 0 mm
09:20 -17.8 °C -18 °C 34428.8 hPa SW 5.1 km/h 8.9 km/h 97 % 0 mm
09:23 -17.8 °C -18 °C 34428.8 hPa SSW 4.7 km/h 8.9 km/h 97 % 0 mm
09:28 -17.8 °C -18 °C 34428.8 hPa SW 5 km/h 8.9 km/h 97 % 0 mm
09:30 -17.8 °C -18 °C 34428.8 hPa SW 4.3 km/h 7.6 km/h 97 % 0 mm
09:35 -17.8 °C -18 °C 34428.8 hPa WSW 2.9 km/h 6.9 km/h 97 % 0 mm
09:36 -17.8 °C -18 °C 34428.8 hPa WSW 2.9 km/h 6.9 km/h 97 % 0 mm
09:39 -17.8 °C -18 °C 34428.8 hPa WSW 1.6 km/h 6.9 km/h 97 % 0 mm
09:42 -17.8 °C -18 °C 34428.8 hPa SW 1 km/h 6.4 km/h 97 % 0 mm
09:47 -17.7 °C -17.9 °C 34428.8 hPa SW 2.3 km/h 6.4 km/h 97 % 0 mm
09:48 -17.7 °C -17.9 °C 34428.8 hPa SW 2.3 km/h 6.4 km/h 97 % 0 mm
09:53 -17.7 °C -17.9 °C 34428.8 hPa SW 2.6 km/h 6.4 km/h 97 % 0 mm
10:45 -17.5 °C -17.7 °C 34428.8 hPa SSW 3.4 km/h 6.4 km/h 97 % 0 mm
10:46 -17.4 °C -17.7 °C 34428.8 hPa SSW 2.9 km/h 6.4 km/h 97 % 7.62 mm
10:48 -17.4 °C -17.7 °C 34428.8 hPa SSW 3.1 km/h 6.4 km/h 97 % 7.62 mm
10:49 -17.4 °C -17.7 °C 34428.8 hPa SSW 2.9 km/h 6.4 km/h 97 % 7.62 mm
10:50 -17.4 °C -17.7 °C 34428.8 hPa SSW 3.1 km/h 6.4 km/h 97 % 7.62 mm
10:51 -17.4 °C -17.7 °C 34428.8 hPa SSW 3.7 km/h 6.9 km/h 97 % 7.62 mm
10:52 -17.4 °C -17.6 °C 34428.8 hPa SSW 4.2 km/h 8 km/h 98 % 7.62 mm
10:53 -17.4 °C -17.6 °C 34428.8 hPa SSW 4.7 km/h 8 km/h 98 % 7.62 mm
10:54 -17.4 °C -17.6 °C 34428.8 hPa SSW 5 km/h 8 km/h 98 % 7.62 mm
10:55 -17.4 °C -17.6 °C 34428.8 hPa SSW 5.6 km/h 8 km/h 98 % 7.62 mm
10:56 -17.4 °C -17.6 °C 34428.8 hPa SSW 6 km/h 8 km/h 98 % 7.62 mm
10:57 -17.4 °C -17.6 °C 34428.8 hPa SSW 5.6 km/h 8 km/h 98 % 7.62 mm
10:58 -17.4 °C -17.6 °C 34428.8 hPa SSW 5.1 km/h 8 km/h 98 % 7.62 mm
10:59 -17.4 °C -17.6 °C 34428.8 hPa SSW 4.7 km/h 8 km/h 98 % 7.62 mm
11:01 -17.4 °C -17.6 °C 34428.8 hPa SSW 4.2 km/h 8 km/h 98 % 7.62 mm
11:02 -17.4 °C -17.6 °C 34428.8 hPa SSW 4.2 km/h 8 km/h 98 % 7.62 mm
11:03 -17.4 °C -17.6 °C 34428.8 hPa SSW 3.4 km/h 8 km/h 98 % 7.62 mm
11:04 -17.4 °C -17.6 °C 34428.8 hPa SSW 3.4 km/h 8 km/h 98 % 7.62 mm
11:05 -17.4 °C -17.6 °C 34428.8 hPa SW 2.3 km/h 6.4 km/h 98 % 7.62 mm
11:08 -17.4 °C -17.6 °C 34428.8 hPa SW 2.3 km/h 6.4 km/h 98 % 7.62 mm
11:09 -17.4 °C -17.6 °C 34428.8 hPa SW 2.6 km/h 6.4 km/h 98 % 7.62 mm
11:10 -17.3 °C -17.5 °C 34428.8 hPa SW 2.6 km/h 6.4 km/h 98 % 7.62 mm
11:11 -17.3 °C -17.5 °C 34428.8 hPa SW 2.3 km/h 5.1 km/h 98 % 7.62 mm
11:12 -17.3 °C -17.5 °C 34428.8 hPa SW 2.1 km/h 5.1 km/h 98 % 7.62 mm
11:13 -17.3 °C -17.5 °C 34428.8 hPa SW 2.1 km/h 5.1 km/h 98 % 7.62 mm
11:14 -17.3 °C -17.5 °C 34428.8 hPa SW 1.8 km/h 5.1 km/h 98 % 7.62 mm
11:15 -17.3 °C -17.5 °C 34428.8 hPa SW 1.8 km/h 5.1 km/h 98 % 7.62 mm
11:16 -17.3 °C -17.5 °C 34428.8 hPa WSW 1.6 km/h 5.1 km/h 98 % 7.62 mm
11:17 -17.3 °C -17.5 °C 34428.8 hPa WSW 2.1 km/h 5.6 km/h 98 % 7.62 mm
11:27 -17.3 °C -17.4 °C 34428.8 hPa SW 2.1 km/h 5.6 km/h 98 % 7.62 mm
11:45 -17.2 °C -17.4 °C 34428.8 hPa SW 2.6 km/h 8 km/h 97 % 7.62 mm
11:50 -17.2 °C -17.4 °C 34428.8 hPa SSW 4.2 km/h 8 km/h 97 % 0 mm
11:56 -17.1 °C -17.2 °C 34428.8 hPa SSW 4.3 km/h 8.9 km/h 98 % 0 mm
11:58 -17.1 °C -17.2 °C 34428.8 hPa SSW 3.4 km/h 8.9 km/h 98 % 0 mm
12:03 -17 °C -17.2 °C 34428.8 hPa SSE 2.3 km/h 8.9 km/h 98 % 0 mm
12:04 -17 °C -17.2 °C 34428.8 hPa SE 1.8 km/h 6.4 km/h 98 % 0 mm
12:08 -17 °C -17.2 °C 34428.8 hPa SE 2.3 km/h 7.6 km/h 98 % 0 mm
12:13 -16.9 °C -17.1 °C 34428.8 hPa SSE 2.6 km/h 7.6 km/h 98 % 0 mm
12:15 -16.9 °C -17.1 °C 34428.8 hPa SSE 2.3 km/h 7.6 km/h 98 % 0 mm
12:20 -16.9 °C -17.1 °C 34428.8 hPa South 1.6 km/h 7.6 km/h 98 % 0 mm
12:21 -16.9 °C -17.1 °C 34428.8 hPa South 1.6 km/h 7.6 km/h 98 % 0 mm
12:26 -16.8 °C -17 °C 34428.8 hPa ESE 5.1 km/h 9.3 km/h 98 % 0 mm
12:27 -16.8 °C -17 °C 34428.8 hPa ESE 5.1 km/h 9.3 km/h 98 % 0 mm
12:29 -16.8 °C -17 °C 34428.8 hPa ESE 4.7 km/h 9.3 km/h 98 % 0 mm
12:34 -16.9 °C -17.1 °C 34428.8 hPa ESE 3.4 km/h 6.4 km/h 98 % 0 mm
12:39 -16.9 °C -17.1 °C 34428.8 hPa ENE 3.9 km/h 7.6 km/h 98 % 0 mm
12:40 -16.9 °C -17.1 °C 34428.8 hPa NE 4.3 km/h 7.6 km/h 98 % 0 mm
12:45 -16.9 °C -17.1 °C 34428.8 hPa NNE 3.4 km/h 7.6 km/h 98 % 0 mm
12:48 -16.9 °C -17.1 °C 34428.8 hPa NNW 2.6 km/h 6.4 km/h 98 % 0 mm
12:53 -17.8 °C -17.1 °C 0 hPa Calm     0 % 0 mm
12:56 -16.8 °C -17 °C 34428.8 hPa WNW 2.3 km/h 7.6 km/h 98 % 0 mm
13:01 -16.8 °C -17 °C 34405.1 hPa WNW 4.2 km/h 7.6 km/h 98 % 0 mm
13:05 -17.8 °C -17 °C 0 hPa Calm     0 % 0 mm
13:08 -16.7 °C -16.9 °C 34405.1 hPa WNW 0.3 km/h 4.2 km/h 98 % 0 mm
13:13 -16.7 °C -16.9 °C 34405.1 hPa Calm     98 % 0 mm
13:14 -16.7 °C -16.9 °C 34405.1 hPa Calm     98 % 0 mm
13:17 -16.7 °C -16.9 °C 34405.1 hPa SE 0.5 km/h 2.9 km/h 98 % 0 mm
13:19 -16.7 °C -16.9 °C 34405.1 hPa SSE 0.5 km/h 6.4 km/h 98 % 0 mm
13:24 -16.6 °C -16.7 °C 34405.1 hPa SSE 1.6 km/h 6.4 km/h 98 % 0 mm
13:26 -16.5 °C -16.7 °C 34405.1 hPa SSE 1.8 km/h 6.4 km/h 98 % 0 mm
13:30 -16.5 °C -16.7 °C 34428.8 hPa SSE 0.3 km/h 3.7 km/h 98 % 0 mm
13:33 -16.5 °C -16.7 °C 34428.8 hPa Calm   2.9 km/h 98 % 0 mm
13:37 -16.4 °C -16.6 °C 34428.8 hPa Calm   3.4 km/h 98 % 0 mm
13:42 -16.5 °C -16.7 °C 34405.1 hPa NW 1.8 km/h 8.9 km/h 98 % 0 mm
13:43 -16.5 °C -16.7 °C 34405.1 hPa NW 2.3 km/h 8.9 km/h 98 % 0 mm
13:48 -16.5 °C -16.7 °C 34405.1 hPa WNW 6.3 km/h 12.2 km/h 98 % 0 mm
13:53 -16.5 °C -16.7 °C 34405.1 hPa West 3.7 km/h 12.2 km/h 98 % 0 mm
13:55 -16.5 °C -16.7 °C 34405.1 hPa West 2.9 km/h 11.1 km/h 98 % 0 mm
14:00 -16.5 °C -16.7 °C 34428.8 hPa NW 0.3 km/h 5.6 km/h 98 % 0 mm
14:01 -16.5 °C -16.7 °C 34428.8 hPa NW 0.3 km/h 5.6 km/h 98 % 0 mm
14:06 -16.5 °C -16.7 °C 34428.8 hPa Calm     98 % 0 mm
14:07 -16.5 °C -16.7 °C 34428.8 hPa Calm   5.1 km/h 98 % 0 mm
14:12 -16.4 °C -16.6 °C 34405.1 hPa WSW 0.5 km/h 5.1 km/h 98 % 0 mm
14:14 -16.4 °C -16.6 °C 34405.1 hPa WSW 0.5 km/h 5.1 km/h 98 % 0 mm
14:17 -16.4 °C -16.6 °C 34405.1 hPa SW 0.5 km/h 2.9 km/h 98 % 0 mm
14:20 -16.4 °C -16.6 °C 34405.1 hPa ESE 0.3 km/h 5.1 km/h 98 % 0 mm
14:25 -16.4 °C -16.6 °C 34405.1 hPa SE 1.3 km/h 7.6 km/h 98 % 0 mm
14:26 -16.4 °C -16.6 °C 34405.1 hPa SE 1.8 km/h 7.6 km/h 98 % 0 mm
14:31 -16.4 °C -16.6 °C 34405.1 hPa SE 4.3 km/h 9.3 km/h 98 % 0 mm
14:34 -16.4 °C -16.6 °C 34405.1 hPa SE 5.6 km/h 9.3 km/h 98 % 0 mm
14:37 -16.4 °C -16.6 °C 34405.1 hPa SE 5.1 km/h 9.3 km/h 98 % 0 mm
14:42 -16.3 °C -16.5 °C 34405.1 hPa SE 2.6 km/h 7.6 km/h 98 % 0 mm
14:47 -16.3 °C -16.5 °C 34405.1 hPa ESE 0.8 km/h 5.1 km/h 98 % 0 mm
14:51 -16.3 °C -16.5 °C 34405.1 hPa SE 0.3 km/h 5.1 km/h 98 % 0 mm
14:52 -16.3 °C -16.5 °C 34405.1 hPa SE 0.3 km/h 5.1 km/h 98 % 0 mm
14:57 -16.3 °C -16.5 °C 34405.1 hPa SE 0.3 km/h 5.6 km/h 98 % 0 mm
15:01 -16.3 °C -16.5 °C 34428.8 hPa SE 2.1 km/h 6.9 km/h 98 % 0 mm
15:06 -16.3 °C -16.5 °C 34428.8 hPa SSE 3.7 km/h 6.9 km/h 98 % 0 mm
15:08 -16.3 °C -16.5 °C 34428.8 hPa SSE 4.2 km/h 6.9 km/h 98 % 0 mm
15:13 -16.3 °C -16.5 °C 34428.8 hPa SSE 2.1 km/h 5.6 km/h 98 % 0 mm
15:17 -16.3 °C -16.6 °C 34428.8 hPa SSE 0.3 km/h 5.1 km/h 97 % 0 mm
15:18 -16.3 °C -16.6 °C 34428.8 hPa Calm     97 % 0 mm
15:23 -16.4 °C -16.6 °C 34428.8 hPa North 2.3 km/h 8.9 km/h 97 % 0 mm
15:28 -16.4 °C -16.6 °C 34428.8 hPa NNW 3.1 km/h 8.9 km/h 97 % 0 mm
15:29 -16.4 °C -16.6 °C 34428.8 hPa NNW 3.1 km/h 8.9 km/h 97 % 0 mm
15:30 -16.4 °C -16.6 °C 34428.8 hPa NNW 2.9 km/h 8.9 km/h 97 % 0 mm
15:35 -16.4 °C -16.7 °C 34428.8 hPa NW 0.8 km/h 6.4 km/h 97 % 0 mm
15:36 -16.4 °C -16.7 °C 34428.8 hPa NW 0.5 km/h 6.4 km/h 97 % 0 mm
15:41 -16.4 °C -16.7 °C 34428.8 hPa NW 1 km/h 6.4 km/h 97 % 0 mm
15:44 -16.4 °C -16.7 °C 34476.3 hPa WNW 0.3 km/h 4.2 km/h 97 % 0 mm
15:48 -16.4 °C -16.7 °C 34476.3 hPa North 0.3 km/h   97 % 0 mm
15:50 -16.4 °C -16.7 °C 34476.3 hPa Calm     97 % 0 mm
15:55 -16.4 °C -16.7 °C 34476.3 hPa Calm     97 % 0 mm
15:59 -16.4 °C -16.7 °C 34428.8 hPa Calm     97 % 0 mm
16:01 -16.4 °C -16.7 °C 34428.8 hPa Calm     97 % 0 mm
16:06 -16.4 °C -16.7 °C 34428.8 hPa WNW 1.3 km/h 9.3 km/h 97 % 0 mm
16:07 -16.4 °C -16.7 °C 34428.8 hPa West 1.8 km/h 9.3 km/h 97 % 0 mm
16:09 -16.4 °C -16.7 °C 34428.8 hPa West 2.6 km/h 9.3 km/h 97 % 0 mm
16:12 -16.4 °C -16.7 °C 34428.8 hPa WNW 3.4 km/h 9.3 km/h 97 % 0 mm
16:15 -16.4 °C -16.7 °C 34476.3 hPa WNW 3.4 km/h 6.9 km/h 97 % 0 mm
16:19 -16.4 °C -16.7 °C 34476.3 hPa NNW 2.1 km/h 5.6 km/h 97 % 0 mm
16:24 -16.4 °C -16.7 °C 34476.3 hPa NW 0.8 km/h 5.1 km/h 97 % 0 mm
16:25 -16.4 °C -16.7 °C 34476.3 hPa NW 0.5 km/h 5.1 km/h 97 % 0 mm
16:30 -16.5 °C -16.7 °C 34476.3 hPa Calm     97 % 0 mm
16:31 -16.5 °C -16.7 °C 34476.3 hPa Calm     97 % 0 mm
16:38 -13.8 °C -14 °C 34476.3 hPa North 2.3 km/h   97 % 0 mm
16:39 -13.8 °C -14.1 °C 34476.3 hPa North 2.6 km/h   97 % 0 mm
16:40 -14 °C -14.3 °C 34476.3 hPa North 3.4 km/h   97 % 0 mm
17:24 -16.3 °C -17 °C 34496.6 hPa SW 5.5 km/h 5.5 km/h 91 % 0 mm
17:28 -16.3 °C -17 °C 34533.8 hPa West 6.3 km/h 12.2 km/h 91 % 0 mm
19:24 -17.4 °C -18.5 °C 34567.7 hPa Calm     87 % 0 mm
19:32 -17.4 °C -18.5 °C 34567.7 hPa Calm     87 % 0 mm
19:38 -17.4 °C -18.4 °C 34601.5 hPa Calm     88 % 0 mm
19:39 -17.5 °C -18.5 °C 34601.5 hPa WNW 1.8 km/h 8 km/h 88 % 0 mm
19:44 -17.6 °C -18.5 °C 34567.7 hPa NW 2.1 km/h 8 km/h 88 % 0 mm
19:45 -17.6 °C -18.5 °C 34567.7 hPa NW 2.3 km/h 11.1 km/h 88 % 0 mm
19:50 -17.6 °C -18.5 °C 34567.7 hPa NW 2.9 km/h 11.1 km/h 88 % 0 mm
19:56 -17.6 °C -18.6 °C 34567.7 hPa WNW 2.1 km/h 8.9 km/h 88 % 0 mm
19:57 -17.6 °C -18.6 °C 34567.7 hPa WNW 2.1 km/h 8.9 km/h 88 % 0 mm
19:58 -17.6 °C -18.6 °C 34567.7 hPa WNW 2.1 km/h 8.9 km/h 88 % 0 mm
20:03 -17.7 °C -18.6 °C 34567.7 hPa WSW 2.9 km/h 9.8 km/h 89 % 0 mm
20:04 -17.7 °C -18.6 °C 34567.7 hPa WSW 2.9 km/h 9.8 km/h 89 % 0 mm
20:09 -17.7 °C -18.6 °C 34567.7 hPa WSW 2.9 km/h 9.8 km/h 89 % 0 mm
20:12 -17.7 °C -18.6 °C 34567.7 hPa WSW 2.9 km/h 9.8 km/h 89 % 0 mm
20:17 -17.7 °C -18.6 °C 34533.8 hPa WSW 3.7 km/h 10.3 km/h 89 % 0 mm
20:19 -17.7 °C -18.6 °C 34533.8 hPa WSW 3.1 km/h 10.3 km/h 89 % 0 mm
20:23 -17.7 °C -18.6 °C 34533.8 hPa WSW 2.3 km/h 9.3 km/h 89 % 0 mm
20:26 -17.7 °C -18.6 °C 34533.8 hPa West 1.6 km/h 8 km/h 89 % 0 mm
20:28 -17.7 °C -18.6 °C 34533.8 hPa West 1.3 km/h 8 km/h 89 % 0 mm
20:33 -17.7 °C -18.6 °C 34533.8 hPa West 1.3 km/h 8 km/h 89 % 0 mm
20:37 -17.7 °C -18.6 °C 34567.7 hPa Calm     89 % 0 mm
20:40 -17.7 °C -18.5 °C 34533.8 hPa Calm     90 % 0 mm
20:42 -17.8 °C -18.6 °C 34533.8 hPa North 0.5 km/h 4.2 km/h 90 % 0 mm
20:47 -17.8 °C -18.6 °C 34533.8 hPa NNE 1.8 km/h 4.2 km/h 90 % 0 mm
20:48 -17.8 °C -18.6 °C 34533.8 hPa North 1.3 km/h 5.6 km/h 90 % 0 mm
20:53 -17.8 °C -18.6 °C 34533.8 hPa NNW 2.1 km/h 6.9 km/h 90 % 0 mm
20:54 -17.8 °C -18.6 °C 34533.8 hPa NNW 2.1 km/h 6.9 km/h 90 % 0 mm
20:59 -17.8 °C -18.6 °C 34533.8 hPa NNW 1.3 km/h 6.9 km/h 90 % 0 mm
21:01 -17.8 °C -18.6 °C 34533.8 hPa NW 1 km/h 5.6 km/h 90 % 0 mm
21:06 -17.8 °C -18.6 °C 34533.8 hPa Calm     90 % 0 mm
21:07 -17.8 °C -18.6 °C 34533.8 hPa Calm     90 % 0 mm
21:12 -17.8 °C -18.6 °C 34533.8 hPa NE 1.8 km/h 9.3 km/h 90 % 0 mm
21:15 -17.8 °C -18.5 °C 34533.8 hPa NE 2.3 km/h 9.3 km/h 91 % 0 mm
21:20 -17.8 °C -18.5 °C 34533.8 hPa NE 2.1 km/h 6.4 km/h 91 % 0 mm
21:25 -17.8 °C -18.5 °C 34533.8 hPa North 1.6 km/h 4.2 km/h 91 % 0 mm
21:31 -17.8 °C -18.5 °C 0 hPa West 1.8 km/h 8 km/h 0 % 0 mm
21:34 -17.8 °C -18.5 °C 34567.7 hPa NW 2.1 km/h 8 km/h 91 % 0 mm
21:39 -17.8 °C -18.5 °C 34567.7 hPa NW 1.8 km/h 8 km/h 91 % 0 mm
21:44 -17.8 °C -18.5 °C 34567.7 hPa NW 1.6 km/h 8 km/h 91 % 0 mm
21:45 -17.8 °C -18.5 °C 34567.7 hPa NW 1.6 km/h 9.3 km/h 91 % 0 mm
21:50 -17.8 °C -18.4 °C 34567.7 hPa NW 3.1 km/h 11.1 km/h 92 % 0 mm
21:55 -17.8 °C -18.4 °C 34567.7 hPa NNW 3.9 km/h 11.1 km/h 92 % 0 mm
21:56 -17.8 °C -18.4 °C 34567.7 hPa NNW 3.9 km/h 11.1 km/h 92 % 0 mm
22:01 -17.8 °C -18.4 °C 34567.7 hPa NW 2.9 km/h 9.8 km/h 92 % 0 mm
22:06 -17.8 °C -18.4 °C 34567.7 hPa NW 1.8 km/h 8 km/h 92 % 0 mm
22:07 -17.8 °C -18.4 °C 34567.7 hPa NW 1.6 km/h 8 km/h 92 % 0 mm
22:12 -17.8 °C -18.4 °C 34567.7 hPa NNW 2.1 km/h 8 km/h 92 % 0 mm
22:13 -17.8 °C -18.4 °C 34567.7 hPa NNW 2.1 km/h 8 km/h 92 % 0 mm
22:18 -17.8 °C -18.4 °C 34567.7 hPa NW 2.6 km/h 8 km/h 92 % 0 mm
22:20 -17.8 °C -18.4 °C 34567.7 hPa NW 2.3 km/h 8 km/h 92 % 0 mm
22:23 -17.8 °C -18.4 °C 34567.7 hPa WNW 1.8 km/h 8 km/h 92 % 0 mm
22:28 -17.8 °C -18.4 °C 34567.7 hPa West 0.8 km/h 8 km/h 92 % 0 mm
22:29 -17.8 °C -18.4 °C 34567.7 hPa West 0.8 km/h 8 km/h 92 % 0 mm
22:31 -17.8 °C -18.4 °C 34567.7 hPa West 0.8 km/h 8 km/h 93 % 0 mm
22:36 -17.8 °C -18.4 °C 34567.7 hPa NW 1.6 km/h 10.3 km/h 93 % 0 mm
22:38 -17.8 °C -18.4 °C 34567.7 hPa NW 1.8 km/h 10.3 km/h 93 % 0 mm
22:39 -17.8 °C -18.4 °C 34567.7 hPa NW 2.1 km/h 10.3 km/h 93 % 0 mm
22:43 -17.8 °C -18.4 °C 34567.7 hPa NW 2.9 km/h 10.3 km/h 93 % 0 mm
22:44 -17.8 °C -18.4 °C 34567.7 hPa NW 3.1 km/h 10.3 km/h 93 % 0 mm
22:49 -17.8 °C -18.4 °C 34567.7 hPa NW 2.6 km/h 8 km/h 93 % 0 mm
22:50 -17.8 °C -18.4 °C 34567.7 hPa NW 2.3 km/h 8 km/h 93 % 0 mm
22:55 -17.9 °C -18.4 °C 34567.7 hPa NW 2.3 km/h 8 km/h 93 % 0 mm
22:56 -17.9 °C -18.4 °C 34567.7 hPa NW 2.6 km/h 8 km/h 93 % 0 mm
22:58 -17.9 °C -18.4 °C 34567.7 hPa NW 2.6 km/h 8 km/h 93 % 0 mm
23:02 -17.9 °C -18.4 °C 34567.7 hPa NW 2.3 km/h 8 km/h 93 % 0 mm
23:07 -17.9 °C -18.4 °C 34567.7 hPa WNW 1.6 km/h 8 km/h 93 % 0 mm
23:09 -17.9 °C -18.4 °C 34567.7 hPa NW 1.3 km/h 8 km/h 93 % 0 mm
23:12 -17.8 °C -18.4 °C 34567.7 hPa WNW 1 km/h 8 km/h 93 % 0 mm
23:17 -17.8 °C -18.4 °C 34567.7 hPa West 1 km/h 8 km/h 93 % 0 mm
23:21 -17.8 °C -18.4 °C 34567.7 hPa West 1.3 km/h 8 km/h 93 % 0 mm
23:23 -17.8 °C -18.4 °C 34567.7 hPa West 1.3 km/h 8 km/h 93 % 0 mm
23:28 -17.8 °C -18.4 °C 34567.7 hPa West 1 km/h 8 km/h 93 % 0 mm
23:33 -17.8 °C -18.4 °C 34567.7 hPa WNW 1 km/h 8 km/h 93 % 0 mm
23:34 -17.8 °C -18.4 °C 34567.7 hPa WNW 1 km/h 8 km/h 93 % 0 mm
23:35 -17.8 °C -18.4 °C 34567.7 hPa WNW 1 km/h 8 km/h 93 % 0 mm
23:40 -17.8 °C -18.4 °C 34567.7 hPa West 1.8 km/h 8 km/h 93 % 0 mm
23:44 -17.8 °C -18.3 °C 34567.7 hPa WSW 2.9 km/h 15 km/h 94 % 0 mm
23:45 -17.8 °C -18.3 °C 34601.5 hPa WSW 3.9 km/h 15 km/h 94 % 0 mm
23:50 -17.9 °C -18.4 °C 34601.5 hPa SW 4.7 km/h 15 km/h 94 % 0 mm
23:52 -17.9 °C -18.4 °C 34601.5 hPa SW 4.7 km/h 15 km/h 94 % 0 mm
23:53 -17.9 °C -18.4 °C 34601.5 hPa SW 4.7 km/h 11.1 km/h 94 % 0 mm
23:58 -17.9 °C -18.4 °C 34601.5 hPa SW 4.2 km/h 12.2 km/h 94 % 0 mm
23:59 -17.9 °C -18.4 °C 34601.5 hPa SW 4.2 km/h 12.2 km/h 94 % 0 mm
Vremenska postaja Senovo
Podatki zbrani iz Weather Underground - 2.75 mb

Script developed by  Jim McMurry - jmcmurry@mwt.net Adapted for the template by  Wim van der Kuil - Leuven-Template.eu

Vremenski podatki so objavljeni na:

European Weather Network

WeatherCloud

Weather Underground

AWEKAS

HAMweather, WeatherForYou, PWS Weather

MapView

Geostik

Slovenia weather network

Oprema, ki se uporablja:

Vremenski program
Cumulus

Vremenski server
Asus

Cumulus

Asus